Time;durP1;ratioP1;P1;durP2;ratioP2;P2;SDS_P1;SDS_P2;PMS_P1;PMS_P2;Temp;Humidity;BMP_temperature;BMP_pressure;BME280_temperature;BME280_humidity;BME280_pressure;Samples;Min_cycle;Max_cycle;Signal;HPM_P1;HPM_P2
2023/09/23 00:00:47;;;;;;;0.10;0.10;;;13.90;99.90;;;;;;4977096;28;20212;-82
2023/09/23 00:03:13;;;;;;;0.10;0.10;;;13.80;99.90;;;;;;4975422;28;20203;-83
2023/09/23 00:05:39;;;;;;;0.10;0.10;;;13.70;99.90;;;;;;4977269;28;20564;-83
2023/09/23 00:08:06;;;;;;;0.10;0.10;;;13.70;99.90;;;;;;4976868;28;20712;-82
2023/09/23 00:10:32;;;;;;;0.10;0.10;;;13.50;99.90;;;;;;4975478;28;20231;-81
2023/09/23 00:12:58;;;;;;;0.00;0.00;;;13.40;99.90;;;;;;4979151;28;20213;-82
2023/09/23 00:15:24;;;;;;;0.10;0.10;;;13.40;99.90;;;;;;4979094;28;20671;-82
2023/09/23 00:17:53;;;;;;;0.10;0.10;;;13.40;99.90;;;;;;4975112;28;20222;-81
2023/09/23 00:20:21;;;;;;;0.10;0.10;;;13.30;99.90;;;;;;4978022;28;20200;-82
2023/09/23 00:22:47;;;;;;;0.00;0.00;;;13.40;99.90;;;;;;4975537;28;20321;-81
2023/09/23 00:25:16;;;;;;;0.10;0.10;;;13.40;99.90;;;;;;4975160;28;20665;-81
2023/09/23 00:27:42;;;;;;;0.10;0.10;;;13.40;99.90;;;;;;4976321;28;20221;-81
2023/09/23 00:30:09;;;;;;;0.10;0.10;;;13.30;99.90;;;;;;4977401;28;20197;-82
2023/09/23 00:32:34;;;;;;;0.10;0.10;;;13.30;99.90;;;;;;4977860;28;20226;-81
2023/09/23 00:35:00;;;;;;;0.07;0.07;;;13.30;99.90;;;;;;4977545;28;20190;-81
2023/09/23 00:37:26;;;;;;;0.03;0.03;;;13.40;99.90;;;;;;4975861;28;20654;-81
2023/09/23 00:39:53;;;;;;;0.10;0.10;;;13.40;99.90;;;;;;4978448;28;20195;-82
2023/09/23 00:42:19;;;;;;;0.10;0.10;;;13.40;99.90;;;;;;4975906;28;20657;-81
2023/09/23 00:44:45;;;;;;;0.10;0.10;;;13.50;99.90;;;;;;4978302;28;20271;-81
2023/09/23 00:47:15;;;;;;;0.10;0.10;;;13.50;99.90;;;;;;4975946;28;20796;-81
2023/09/23 00:49:45;;;;;;;0.10;0.10;;;13.40;99.90;;;;;;4991887;28;20627;-81
2023/09/23 00:52:15;;;;;;;0.10;0.10;;;13.40;99.90;;;;;;4979723;28;20722;-81
2023/09/23 00:54:49;;;;;;;0.10;0.10;;;13.30;99.90;;;;;;4977066;28;20562;-80
2023/09/23 00:57:17;;;;;;;0.10;0.10;;;13.30;99.90;;;;;;4977588;28;20219;-81
2023/09/23 00:59:43;;;;;;;0.10;0.10;;;13.30;99.90;;;;;;4978378;28;20659;-81
2023/09/23 01:02:12;;;;;;;0.10;0.10;;;13.30;99.90;;;;;;4982647;28;20658;-81
2023/09/23 01:04:38;;;;;;;0.10;0.10;;;13.30;99.90;;;;;;4974746;28;20210;-81
2023/09/23 01:07:04;;;;;;;0.10;0.10;;;13.40;99.90;;;;;;4977926;28;20185;-81
2023/09/23 01:09:33;;;;;;;0.00;0.00;;;13.40;99.90;;;;;;4977495;28;20588;-81
2023/09/23 01:12:00;;;;;;;0.10;0.10;;;13.30;99.90;;;;;;4977007;28;20340;-82
2023/09/23 01:14:27;;;;;;;0.10;0.10;;;13.30;99.90;;;;;;4977139;28;20750;-81
2023/09/23 01:16:52;;;;;;;0.10;0.10;;;13.20;99.90;;;;;;4976437;28;20184;-81
2023/09/23 01:19:20;;;;;;;0.10;0.10;;;13.20;99.90;;;;;;4978668;28;20193;-81
2023/09/23 01:21:49;;;;;;;0.10;0.10;;;13.20;99.90;;;;;;4974956;28;20195;-82
2023/09/23 01:24:18;;;;;;;0.10;0.10;;;13.10;99.90;;;;;;4977158;28;20209;-81
2023/09/23 01:26:52;;;;;;;0.10;0.10;;;13.10;99.90;;;;;;4978224;28;20252;-81
2023/09/23 01:29:23;;;;;;;0.00;0.00;;;13.10;99.90;;;;;;4976119;28;20214;-81
2023/09/23 01:32:06;;;;;;;0.10;0.10;;;13.00;99.90;;;;;;4975842;28;20171;-82
2023/09/23 01:34:32;;;;;;;0.10;0.10;;;13.00;99.90;;;;;;4976601;28;20196;-81
2023/09/23 01:36:58;;;;;;;0.10;0.10;;;13.00;99.90;;;;;;4976178;28;20187;-81
2023/09/23 01:39:24;;;;;;;0.10;0.10;;;12.90;99.90;;;;;;4980246;28;20172;-81
2023/09/23 01:41:53;;;;;;;0.10;0.10;;;12.90;99.90;;;;;;4976507;28;20271;-81
2023/09/23 01:44:19;;;;;;;0.10;0.10;;;12.80;99.90;;;;;;4977171;28;20676;-81
2023/09/23 01:46:45;;;;;;;0.10;0.10;;;12.70;99.90;;;;;;4976611;28;20211;-82
2023/09/23 01:49:12;;;;;;;0.10;0.10;;;12.60;99.90;;;;;;4978753;28;20185;-82
2023/09/23 01:51:37;;;;;;;0.10;0.10;;;12.60;99.90;;;;;;4980531;28;20193;-81
2023/09/23 01:54:03;;;;;;;0.00;0.00;;;12.50;99.90;;;;;;4981489;28;20209;-81
2023/09/23 01:56:30;;;;;;;0.10;0.10;;;12.50;99.90;;;;;;4980985;28;20185;-82
2023/09/23 01:58:56;;;;;;;0.10;0.10;;;12.50;99.90;;;;;;4978222;28;20206;-82
2023/09/23 02:01:21;;;;;;;0.10;0.10;;;12.50;99.90;;;;;;4978743;28;20200;-82
2023/09/23 02:03:47;;;;;;;0.10;0.10;;;12.40;99.90;;;;;;4977776;28;20205;-81
2023/09/23 02:06:12;;;;;;;0.10;0.10;;;12.40;99.90;;;;;;4979909;28;20193;-82
2023/09/23 02:08:38;;;;;;;0.10;0.10;;;12.40;99.90;;;;;;4978689;28;20208;-82
2023/09/23 02:11:04;;;;;;;0.00;0.00;;;12.40;99.90;;;;;;4980554;28;20180;-82
2023/09/23 02:13:29;;;;;;;0.00;0.00;;;12.30;99.90;;;;;;4980313;28;20232;-82
2023/09/23 02:15:57;;;;;;;0.10;0.10;;;12.20;99.90;;;;;;4994933;28;20186;-81
2023/09/23 02:18:23;;;;;;;0.10;0.10;;;12.20;99.90;;;;;;4977926;28;20678;-82
2023/09/23 02:20:50;;;;;;;0.10;0.10;;;12.20;99.90;;;;;;4980178;28;20246;-82
2023/09/23 02:23:16;;;;;;;0.10;0.10;;;12.20;99.90;;;;;;4979464;28;20658;-82
2023/09/23 02:25:41;;;;;;;0.10;0.10;;;12.30;99.90;;;;;;4977151;28;20242;-81
2023/09/23 02:28:07;;;;;;;0.00;0.00;;;12.20;99.90;;;;;;4977749;28;20273;-81
2023/09/23 02:30:33;;;;;;;0.10;0.10;;;12.30;99.90;;;;;;4980180;28;20200;-81
2023/09/23 02:32:59;;;;;;;0.10;0.10;;;12.10;99.90;;;;;;4976713;28;20290;-82
2023/09/23 02:35:25;;;;;;;0.07;0.07;;;12.00;99.90;;;;;;4979507;28;20413;-82
2023/09/23 02:37:51;;;;;;;0.10;0.10;;;11.90;99.90;;;;;;4973761;28;20754;-82
2023/09/23 02:40:17;;;;;;;0.10;0.10;;;11.80;99.90;;;;;;4979245;28;20252;-82
2023/09/23 02:42:44;;;;;;;0.10;0.10;;;11.60;99.90;;;;;;4994575;28;20184;-81
2023/09/23 02:45:12;;;;;;;0.10;0.10;;;11.50;99.90;;;;;;4981113;28;20197;-81
2023/09/23 02:47:38;;;;;;;0.10;0.10;;;11.50;99.90;;;;;;4979740;28;20299;-81
2023/09/23 02:50:09;;;;;;;0.10;0.10;;;11.50;99.90;;;;;;4978296;28;20811;-82
2023/09/23 02:52:36;;;;;;;0.10;0.10;;;11.50;99.90;;;;;;4991502;28;20216;-81
2023/09/23 02:55:02;;;;;;;0.10;0.10;;;11.50;99.90;;;;;;4981057;28;20270;-81
2023/09/23 02:57:27;;;;;;;0.10;0.10;;;11.60;99.90;;;;;;4980496;28;20841;-82
2023/09/23 02:59:57;;;;;;;0.10;0.10;;;11.70;99.90;;;;;;4979668;28;20543;-82
2023/09/23 03:02:27;;;;;;;0.03;0.03;;;11.80;99.90;;;;;;4975698;28;20189;-81
2023/09/23 03:04:58;;;;;;;0.10;0.10;;;11.70;99.90;;;;;;4977859;28;20184;-81
2023/09/23 03:07:32;;;;;;;0.10;0.10;;;11.70;99.90;;;;;;4993410;28;20221;-81
2023/09/23 03:10:00;;;;;;;0.03;0.03;;;11.40;99.90;;;;;;4980096;28;20208;-81
2023/09/23 03:12:27;;;;;;;0.10;0.10;;;11.30;99.90;;;;;;4978867;28;20819;-82
2023/09/23 03:14:52;;;;;;;0.10;0.10;;;11.40;99.90;;;;;;4977756;28;20207;-82
2023/09/23 03:17:21;;;;;;;0.10;0.10;;;11.40;99.90;;;;;;4979187;28;20685;-82
2023/09/23 03:19:50;;;;;;;0.10;0.10;;;11.50;99.90;;;;;;4966655;28;20557;-81
2023/09/23 03:22:20;;;;;;;0.10;0.10;;;11.40;99.90;;;;;;4975486;28;20183;-81
2023/09/23 03:24:48;;;;;;;0.10;0.10;;;11.40;99.90;;;;;;4977008;28;20647;-81
2023/09/23 03:27:13;;;;;;;0.10;0.10;;;11.60;99.90;;;;;;4979437;28;20201;-81
2023/09/23 03:29:40;;;;;;;0.10;0.10;;;11.70;99.90;;;;;;4978869;28;20199;-81
2023/09/23 03:32:06;;;;;;;0.10;0.10;;;11.80;99.90;;;;;;4979931;28;20554;-81
2023/09/23 03:34:32;;;;;;;0.10;0.10;;;11.90;99.90;;;;;;4992626;28;20174;-81
2023/09/23 03:36:58;;;;;;;0.10;0.10;;;12.00;99.90;;;;;;4978064;28;20660;-82
2023/09/23 03:39:24;;;;;;;0.10;0.10;;;12.10;99.90;;;;;;4979546;28;20203;-81
2023/09/23 03:41:50;;;;;;;0.10;0.10;;;12.30;99.90;;;;;;4976845;28;20185;-81
2023/09/23 03:44:16;;;;;;;0.00;0.00;;;12.40;99.90;;;;;;4974554;28;20203;-81
2023/09/23 03:46:45;;;;;;;0.10;0.10;;;12.40;99.90;;;;;;4976218;28;20280;-82
2023/09/23 03:49:10;;;;;;;0.10;0.10;;;12.40;99.90;;;;;;4977246;28;20205;-81
2023/09/23 03:51:37;;;;;;;0.10;0.10;;;12.40;99.90;;;;;;4975948;28;20199;-81
2023/09/23 03:54:04;;;;;;;0.10;0.10;;;12.40;99.90;;;;;;4975935;28;20210;-81
2023/09/23 03:56:29;;;;;;;0.10;0.10;;;12.40;99.90;;;;;;4975511;28;20180;-81
2023/09/23 03:58:56;;;;;;;0.10;0.10;;;12.50;99.90;;;;;;4994031;28;20266;-81
2023/09/23 04:01:24;;;;;;;0.10;0.10;;;12.50;99.90;;;;;;4975314;28;21812;-81
2023/09/23 04:03:51;;;;;;;0.00;0.00;;;12.70;99.90;;;;;;4975277;28;20202;-82
2023/09/23 04:06:17;;;;;;;0.10;0.10;;;12.80;99.90;;;;;;4976729;28;20263;-81
2023/09/23 04:08:43;;;;;;;0.00;0.00;;;13.00;99.90;;;;;;4975947;28;20225;-81
2023/09/23 04:11:10;;;;;;;0.10;0.10;;;13.00;99.90;;;;;;4975648;28;20279;-81
2023/09/23 04:13:36;;;;;;;0.10;0.10;;;13.10;99.90;;;;;;4973198;28;20223;-81
2023/09/23 04:16:02;;;;;;;0.10;0.10;;;13.20;99.90;;;;;;4973845;28;20181;-82
2023/09/23 04:18:28;;;;;;;0.00;0.00;;;13.10;99.90;;;;;;4977046;28;20754;-81
2023/09/23 04:20:54;;;;;;;0.10;0.10;;;13.10;99.90;;;;;;4975137;28;20239;-81
2023/09/23 04:23:20;;;;;;;0.10;0.10;;;13.10;99.90;;;;;;4976786;28;20271;-82
2023/09/23 04:25:48;;;;;;;0.10;0.10;;;12.90;99.90;;;;;;4966785;28;20682;-81
2023/09/23 04:28:13;;;;;;;0.10;0.10;;;12.80;99.90;;;;;;4977870;28;20217;-81
2023/09/23 04:30:39;;;;;;;0.00;0.00;;;12.80;99.90;;;;;;4974464;28;20693;-81
2023/09/23 04:33:05;;;;;;;0.10;0.10;;;12.70;99.90;;;;;;4974745;28;20315;-81
2023/09/23 04:35:30;;;;;;;0.10;0.10;;;12.60;99.90;;;;;;4975764;28;20336;-81
2023/09/23 04:37:56;;;;;;;0.00;0.00;;;12.50;99.90;;;;;;4975151;28;20203;-82
2023/09/23 04:40:21;;;;;;;0.10;0.10;;;12.50;99.90;;;;;;4974585;28;20185;-82
2023/09/23 04:42:48;;;;;;;0.10;0.10;;;12.50;99.90;;;;;;4977275;28;20208;-81
2023/09/23 04:45:14;;;;;;;0.10;0.10;;;12.50;99.90;;;;;;4973971;28;20259;-82
2023/09/23 04:47:40;;;;;;;0.07;0.07;;;12.40;99.90;;;;;;4976388;28;20364;-82
2023/09/23 04:50:08;;;;;;;0.10;0.10;;;12.40;99.90;;;;;;4978533;28;20627;-82
2023/09/23 04:52:34;;;;;;;0.10;0.10;;;12.40;99.90;;;;;;4978859;28;20209;-82
2023/09/23 04:55:00;;;;;;;0.00;0.00;;;12.30;99.90;;;;;;4979593;28;20190;-82
2023/09/23 04:57:26;;;;;;;0.10;0.10;;;12.30;99.90;;;;;;4982449;28;20208;-82
2023/09/23 04:59:52;;;;;;;0.10;0.10;;;12.30;99.90;;;;;;4981410;28;20189;-82
2023/09/23 05:02:18;;;;;;;0.10;0.10;;;12.40;99.90;;;;;;4977343;28;20216;-81
2023/09/23 05:04:45;;;;;;;0.10;0.10;;;12.40;99.90;;;;;;4979436;28;20286;-81
2023/09/23 05:07:12;;;;;;;0.10;0.10;;;12.50;99.90;;;;;;4976372;28;20208;-82
2023/09/23 05:09:38;;;;;;;0.10;0.10;;;12.60;99.90;;;;;;4981649;28;20191;-81
2023/09/23 05:12:04;;;;;;;0.10;0.10;;;12.70;99.90;;;;;;4981959;28;21120;-81
2023/09/23 05:14:30;;;;;;;0.10;0.10;;;12.80;99.90;;;;;;4981298;28;20617;-81
2023/09/23 05:16:58;;;;;;;0.10;0.10;;;12.80;99.90;;;;;;4979723;28;20265;-81
2023/09/23 05:19:24;;;;;;;0.10;0.10;;;12.80;99.90;;;;;;4975522;28;20218;-82
2023/09/23 05:21:53;;;;;;;0.10;0.10;;;12.80;99.90;;;;;;4977201;28;20208;-82
2023/09/23 05:24:19;;;;;;;0.10;0.10;;;12.90;99.90;;;;;;4973668;28;20192;-82
2023/09/23 05:26:44;;;;;;;0.10;0.10;;;12.90;99.90;;;;;;4980816;28;20218;-82
2023/09/23 05:29:10;;;;;;;0.10;0.10;;;13.00;99.90;;;;;;4978334;28;20691;-81
2023/09/23 05:31:38;;;;;;;0.10;0.10;;;13.00;99.90;;;;;;4977159;28;20192;-81
2023/09/23 05:34:04;;;;;;;0.10;0.10;;;13.10;99.90;;;;;;4979441;28;20340;-81
2023/09/23 05:36:31;;;;;;;0.10;0.10;;;13.00;99.90;;;;;;4981370;28;20824;-81
2023/09/23 05:38:56;;;;;;;0.10;0.10;;;13.20;99.90;;;;;;4982127;28;20691;-81
2023/09/23 05:41:23;;;;;;;0.10;0.10;;;13.20;99.90;;;;;;4978556;28;20201;-81
2023/09/23 05:43:49;;;;;;;0.10;0.10;;;13.10;99.90;;;;;;4982230;28;20794;-81
2023/09/23 05:46:15;;;;;;;0.10;0.10;;;13.20;99.90;;;;;;4980673;28;20194;-82
2023/09/23 05:48:41;;;;;;;0.10;0.10;;;13.20;99.90;;;;;;4978121;28;20714;-82
2023/09/23 05:51:06;;;;;;;0.07;0.07;;;13.30;99.90;;;;;;4978918;28;20205;-82
2023/09/23 05:53:33;;;;;;;0.03;0.03;;;13.40;99.90;;;;;;4982895;28;20940;-82
2023/09/23 05:56:01;;;;;;;0.00;0.00;;;13.40;99.90;;;;;;4979844;28;20195;-80
2023/09/23 05:58:27;;;;;;;0.10;0.10;;;13.30;99.90;;;;;;4971565;28;20206;-80
2023/09/23 06:00:53;;;;;;;0.10;0.10;;;13.20;99.90;;;;;;4980322;28;20187;-81
2023/09/23 06:03:18;;;;;;;0.10;0.10;;;13.20;99.90;;;;;;4979597;28;20551;-81
2023/09/23 06:05:44;;;;;;;0.10;0.10;;;13.20;99.90;;;;;;4982482;28;20564;-81
2023/09/23 06:08:12;;;;;;;0.10;0.10;;;13.10;99.90;;;;;;4981385;28;20689;-81
2023/09/23 06:10:38;;;;;;;0.00;0.00;;;13.00;99.90;;;;;;4989442;28;20200;-80
2023/09/23 06:13:07;;;;;;;0.10;0.10;;;12.90;99.90;;;;;;4980033;28;20239;-81
2023/09/23 06:15:33;;;;;;;0.10;0.10;;;12.90;99.90;;;;;;4983216;28;20240;-81
2023/09/23 06:18:00;;;;;;;0.03;0.03;;;12.90;99.90;;;;;;4982833;28;20312;-80
2023/09/23 06:20:25;;;;;;;0.10;0.10;;;13.00;99.90;;;;;;4989348;28;20283;-81
2023/09/23 06:22:51;;;;;;;0.10;0.10;;;13.00;99.90;;;;;;4979994;28;20284;-81
2023/09/23 06:25:16;;;;;;;0.10;0.10;;;13.00;99.90;;;;;;4981465;28;20670;-81
2023/09/23 06:27:42;;;;;;;0.10;0.10;;;13.00;99.90;;;;;;4982397;28;20210;-81
2023/09/23 06:30:08;;;;;;;0.10;0.10;;;13.10;99.90;;;;;;4984348;28;20573;-81
2023/09/23 06:32:34;;;;;;;0.10;0.10;;;13.20;99.90;;;;;;4983044;28;20214;-81
2023/09/23 06:34:59;;;;;;;0.10;0.10;;;13.40;99.90;;;;;;4983963;28;20199;-81
2023/09/23 06:37:25;;;;;;;0.07;0.07;;;13.50;99.90;;;;;;4982738;28;20248;-81
2023/09/23 06:39:50;;;;;;;0.10;0.10;;;13.60;99.90;;;;;;4983972;28;20207;-81
2023/09/23 06:42:16;;;;;;;0.10;0.10;;;13.80;99.90;;;;;;4983078;28;20184;-81
2023/09/23 06:44:45;;;;;;;0.10;0.10;;;13.80;99.90;;;;;;4983542;28;20277;-81
2023/09/23 06:47:11;;;;;;;0.00;0.00;;;13.90;99.90;;;;;;4982607;28;20208;-81
2023/09/23 06:49:36;;;;;;;0.10;0.10;;;13.90;99.90;;;;;;4983914;28;20668;-81
2023/09/23 06:52:02;;;;;;;0.03;0.03;;;14.20;99.90;;;;;;4984060;28;20277;-81
2023/09/23 06:54:27;;;;;;;0.00;0.00;;;14.40;99.90;;;;;;4979662;28;20215;-81
2023/09/23 06:56:56;;;;;;;0.10;0.10;;;14.80;99.90;;;;;;4982621;28;20184;-81
2023/09/23 06:59:22;;;;;;;0.10;0.10;;;15.00;99.90;;;;;;4982711;28;20197;-81
2023/09/23 07:01:48;;;;;;;0.10;0.10;;;15.10;99.90;;;;;;4981932;28;20587;-81
2023/09/23 07:04:14;;;;;;;0.00;0.00;;;15.20;99.90;;;;;;4988325;28;20248;-81
2023/09/23 07:06:39;;;;;;;0.10;0.10;;;15.50;99.90;;;;;;4981367;28;20533;-81
2023/09/23 07:09:05;;;;;;;0.10;0.10;;;15.60;99.90;;;;;;4980531;28;20212;-81
2023/09/23 07:11:31;;;;;;;0.10;0.10;;;15.70;99.90;;;;;;4978430;28;20257;-81
2023/09/23 07:13:58;;;;;;;0.10;0.10;;;15.40;99.90;;;;;;4982287;28;20211;-81
2023/09/23 07:16:26;;;;;;;0.10;0.10;;;15.10;99.90;;;;;;4983813;28;20183;-81
2023/09/23 07:18:52;;;;;;;0.10;0.10;;;15.10;99.90;;;;;;4980968;28;20206;-81
2023/09/23 07:21:17;;;;;;;0.10;0.10;;;14.80;99.90;;;;;;4982411;28;20194;-81
2023/09/23 07:23:43;;;;;;;0.10;0.10;;;14.50;99.90;;;;;;4980778;28;20286;-81
2023/09/23 07:26:08;;;;;;;0.10;0.10;;;14.30;99.90;;;;;;4981207;28;20658;-81
2023/09/23 07:28:34;;;;;;;0.10;0.10;;;14.20;99.90;;;;;;4983982;28;20284;-81
2023/09/23 07:31:00;;;;;;;0.10;0.10;;;14.10;99.90;;;;;;4981400;28;20795;-81
2023/09/23 07:33:26;;;;;;;0.10;0.10;;;14.10;99.90;;;;;;4982146;28;20759;-81
2023/09/23 07:35:52;;;;;;;0.00;0.00;;;14.30;99.90;;;;;;4978837;28;20220;-81
2023/09/23 07:38:17;;;;;;;0.10;0.10;;;14.30;99.90;;;;;;4980954;28;20211;-81
2023/09/23 07:40:43;;;;;;;0.10;0.10;;;14.30;99.90;;;;;;4981288;28;20188;-81
2023/09/23 07:43:08;;;;;;;0.10;0.10;;;14.40;99.90;;;;;;4979190;28;20198;-81
2023/09/23 07:45:34;;;;;;;0.10;0.10;;;14.30;99.90;;;;;;4979950;28;20224;-81
2023/09/23 07:48:00;;;;;;;0.10;0.10;;;14.30;99.90;;;;;;4978965;28;20210;-81
2023/09/23 07:50:26;;;;;;;0.10;0.10;;;14.50;99.90;;;;;;4982074;28;20250;-81
2023/09/23 07:52:51;;;;;;;0.10;0.10;;;14.60;99.90;;;;;;4981915;28;20201;-81
2023/09/23 07:55:17;;;;;;;0.10;0.10;;;14.70;99.90;;;;;;4980485;28;21425;-81
2023/09/23 07:57:43;;;;;;;0.10;0.10;;;14.90;99.90;;;;;;4979678;28;20672;-81
2023/09/23 08:00:09;;;;;;;0.10;0.10;;;14.80;99.90;;;;;;4981561;28;20210;-81
2023/09/23 08:02:35;;;;;;;0.10;0.10;;;14.90;99.90;;;;;;4979378;28;20253;-81
2023/09/23 08:05:03;;;;;;;0.10;0.10;;;14.70;99.90;;;;;;4978708;28;20682;-81
2023/09/23 08:07:32;;;;;;;0.10;0.10;;;14.90;99.90;;;;;;4978460;28;20724;-81
2023/09/23 08:09:58;;;;;;;0.10;0.10;;;15.00;99.90;;;;;;4979269;28;20191;-81
2023/09/23 08:12:24;;;;;;;0.10;0.10;;;15.10;99.90;;;;;;4980523;28;20661;-81
2023/09/23 08:14:50;;;;;;;0.10;0.10;;;14.90;99.90;;;;;;4979972;28;20190;-81
2023/09/23 08:17:16;;;;;;;0.00;0.00;;;15.00;99.90;;;;;;4979712;28;20206;-81
2023/09/23 08:19:41;;;;;;;0.10;0.10;;;15.10;99.90;;;;;;4978783;28;20318;-81
2023/09/23 08:22:07;;;;;;;0.57;0.57;;;15.10;99.90;;;;;;4978021;28;20466;-79
2023/09/23 08:24:32;;;;;;;0.10;0.10;;;15.20;99.90;;;;;;4979568;28;20188;-79
2023/09/23 08:26:58;;;;;;;0.10;0.10;;;15.10;99.90;;;;;;4980084;28;20277;-79
2023/09/23 08:29:24;;;;;;;0.10;0.10;;;15.40;99.90;;;;;;4977800;28;20705;-79
2023/09/23 08:31:50;;;;;;;0.10;0.10;;;15.50;99.90;;;;;;4979023;28;20604;-78
2023/09/23 08:34:17;;;;;;;0.00;0.00;;;15.60;99.90;;;;;;4980715;28;20212;-79
2023/09/23 08:36:42;;;;;;;0.10;0.10;;;15.90;99.90;;;;;;4979104;28;20267;-79
2023/09/23 08:39:09;;;;;;;0.10;0.10;;;15.80;99.90;;;;;;4976447;28;20460;-79
2023/09/23 08:41:35;;;;;;;0.10;0.10;;;16.10;99.90;;;;;;4980042;28;20261;-81
2023/09/23 08:44:05;;;;;;;0.10;0.10;;;16.30;99.90;;;;;;4978423;28;20180;-81
2023/09/23 08:46:31;;;;;;;0.00;0.00;;;16.50;99.90;;;;;;4978952;28;20179;-81
2023/09/23 08:48:58;;;;;;;0.10;0.10;;;16.60;99.90;;;;;;4980339;28;20747;-81
2023/09/23 08:51:27;;;;;;;0.10;0.10;;;16.80;99.90;;;;;;4980667;28;20184;-81
2023/09/23 08:53:54;;;;;;;0.10;0.10;;;16.90;99.90;;;;;;4976696;28;20729;-81
2023/09/23 08:56:20;;;;;;;0.10;0.10;;;17.00;99.90;;;;;;4980667;28;20234;-81
2023/09/23 08:58:48;;;;;;;0.10;0.10;;;17.10;99.90;;;;;;4979352;28;20683;-81
2023/09/23 09:01:15;;;;;;;0.10;0.10;;;17.20;99.90;;;;;;4978909;28;20211;-82
2023/09/23 09:03:41;;;;;;;0.10;0.10;;;17.30;99.90;;;;;;4978466;28;20287;-81
2023/09/23 09:06:19;;;;;;;0.10;0.10;;;17.40;99.90;;;;;;4977452;28;20215;-81
2023/09/23 09:08:45;;;;;;;0.10;0.10;;;17.70;99.90;;;;;;4995945;28;20215;-81
2023/09/23 09:11:11;;;;;;;0.10;0.10;;;18.10;99.90;;;;;;4978212;28;20203;-82
2023/09/23 09:13:37;;;;;;;0.10;0.10;;;18.60;99.90;;;;;;4979866;28;21004;-81
2023/09/23 09:16:07;;;;;;;0.10;0.10;;;18.90;99.90;;;;;;4978530;28;20211;-81
2023/09/23 09:18:33;;;;;;;0.10;0.10;;;18.80;99.90;;;;;;4980195;28;20280;-81
2023/09/23 09:20:58;;;;;;;0.10;0.10;;;18.90;99.90;;;;;;4978945;28;20196;-81
2023/09/23 09:23:32;;;;;;;0.10;0.10;;;18.90;99.90;;;;;;4975908;28;20200;-81
2023/09/23 09:25:58;;;;;;;0.10;0.10;;;18.70;99.90;;;;;;4978321;28;20195;-81
2023/09/23 09:28:24;;;;;;;0.10;0.10;;;18.30;99.90;;;;;;4979954;28;20215;-81
2023/09/23 09:30:56;;;;;;;0.10;0.10;;;18.20;99.90;;;;;;4979443;28;20659;-82
2023/09/23 09:33:26;;;;;;;0.10;0.10;;;18.10;99.90;;;;;;4977646;28;20203;-81
2023/09/23 09:35:56;;;;;;;0.10;0.10;;;18.00;99.90;;;;;;4977927;28;20191;-81
2023/09/23 09:38:25;;;;;;;0.10;0.10;;;18.20;99.90;;;;;;4977195;28;21032;-82
2023/09/23 09:40:56;;;;;;;0.10;0.10;;;18.00;99.90;;;;;;4978482;28;20600;-82
2023/09/23 09:43:22;;;;;;;0.10;0.10;;;17.90;99.90;;;;;;4979439;28;20239;-82
2023/09/23 09:45:49;;;;;;;0.10;0.10;;;17.80;99.90;;;;;;4978855;28;20246;-82
2023/09/23 09:48:15;;;;;;;0.10;0.10;;;18.00;99.90;;;;;;4979547;28;20214;-82
2023/09/23 09:50:43;;;;;;;0.10;0.10;;;18.00;99.90;;;;;;4980026;28;20192;-82
2023/09/23 09:53:08;;;;;;;0.10;0.10;;;18.00;99.90;;;;;;4995318;28;20628;-82
2023/09/23 09:55:34;;;;;;;0.10;0.10;;;17.90;99.90;;;;;;4979378;28;20185;-82
2023/09/23 09:58:01;;;;;;;0.10;0.10;;;18.00;99.90;;;;;;4980579;28;20208;-82
2023/09/23 10:00:27;;;;;;;0.10;0.10;;;18.10;99.90;;;;;;4978801;28;20227;-83
2023/09/23 10:03:01;;;;;;;0.10;0.10;;;18.10;99.90;;;;;;4977900;28;20204;-82
2023/09/23 10:05:46;;;;;;;0.10;0.10;;;18.00;99.90;;;;;;4981026;28;20176;-82
2023/09/23 10:08:24;;;;;;;0.10;0.10;;;18.10;99.90;;;;;;4977548;28;20679;-82
2023/09/23 10:10:57;;;;;;;0.10;0.10;;;18.30;99.90;;;;;;4980518;28;20190;-82
2023/09/23 10:13:24;;;;;;;0.10;0.10;;;18.60;99.90;;;;;;4982090;28;20215;-82
2023/09/23 10:16:27;;;;;;;0.10;0.10;;;18.70;99.90;;;;;;4983805;28;20647;-82
2023/09/23 10:18:54;;;;;;;0.10;0.10;;;19.00;99.90;;;;;;4975261;28;20230;-82
2023/09/23 10:21:25;;;;;;;0.10;0.10;;;19.80;99.90;;;;;;4984068;28;20746;-81
2023/09/23 10:23:52;;;;;;;0.10;0.10;;;20.30;99.90;;;;;;4999340;28;20270;-82
2023/09/23 10:26:19;;;;;;;0.10;0.10;;;20.40;99.90;;;;;;4989993;28;20194;-82
2023/09/23 10:28:59;;;;;;;0.10;0.10;;;20.40;99.90;;;;;;4980582;28;20215;-82
2023/09/23 10:31:30;;;;;;;0.10;0.10;;;20.20;99.90;;;;;;4979900;28;20180;-82
2023/09/23 10:33:56;;;;;;;0.10;0.10;;;20.20;99.90;;;;;;4983234;28;20211;-82
2023/09/23 10:36:22;;;;;;;0.10;0.10;;;20.40;99.90;;;;;;4989719;28;20179;-82
2023/09/23 10:38:48;;;;;;;0.10;0.10;;;20.60;99.90;;;;;;4983059;28;20683;-82
2023/09/23 10:41:14;;;;;;;0.10;0.10;;;20.80;99.90;;;;;;4983275;28;20216;-82
2023/09/23 10:43:40;;;;;;;0.10;0.10;;;20.40;99.90;;;;;;4982712;28;20266;-82
2023/09/23 10:46:06;;;;;;;0.10;0.10;;;20.80;99.90;;;;;;4983000;28;20218;-82
2023/09/23 10:48:32;;;;;;;0.10;0.10;;;21.00;99.90;;;;;;4983766;28;20227;-82
2023/09/23 10:51:00;;;;;;;0.10;0.10;;;21.10;99.90;;;;;;4984773;28;20179;-82
2023/09/23 10:53:27;;;;;;;0.10;0.10;;;21.10;99.90;;;;;;4998227;28;20200;-82
2023/09/23 10:55:54;;;;;;;0.10;0.10;;;21.50;99.90;;;;;;4982405;28;20228;-82
2023/09/23 10:58:21;;;;;;;0.10;0.10;;;21.00;99.90;;;;;;4982693;28;20201;-82
2023/09/23 11:00:46;;;;;;;0.10;0.10;;;20.50;99.90;;;;;;4986001;28;20648;-82
2023/09/23 11:03:17;;;;;;;0.10;0.10;;;20.20;99.90;;;;;;4986201;28;20202;-82
2023/09/23 11:05:44;;;;;;;0.10;0.10;;;20.60;99.90;;;;;;4990405;28;20179;-82
2023/09/23 11:08:14;;;;;;;0.10;0.10;;;20.40;99.90;;;;;;4990578;28;20200;-82
2023/09/23 11:10:45;;;;;;;0.10;0.10;;;20.20;99.90;;;;;;4989210;28;20244;-82
2023/09/23 11:13:13;;;;;;;0.10;0.10;;;20.40;99.90;;;;;;4991466;28;20294;-82
2023/09/23 11:15:39;;;;;;;0.10;0.10;;;20.80;99.90;;;;;;4988702;28;20274;-81
2023/09/23 11:18:14;;;;;;;0.10;0.10;;;20.70;99.90;;;;;;4982160;28;20201;-82
2023/09/23 11:20:42;;;;;;;0.10;0.10;;;20.60;99.90;;;;;;4990772;28;20182;-82
2023/09/23 11:23:10;;;;;;;0.10;0.10;;;20.70;99.90;;;;;;4981881;28;20202;-82
2023/09/23 11:25:37;;;;;;;0.10;0.10;;;20.80;99.90;;;;;;4983740;28;20215;-82
2023/09/23 11:28:03;;;;;;;0.10;0.10;;;20.60;99.90;;;;;;4994234;28;20234;-82
2023/09/23 11:30:29;;;;;;;0.10;0.10;;;20.40;99.90;;;;;;4981817;28;20244;-82
2023/09/23 11:32:56;;;;;;;0.10;0.10;;;20.10;99.90;;;;;;4983192;28;20234;-83
2023/09/23 11:35:24;;;;;;;0.10;0.10;;;20.40;99.90;;;;;;4982052;28;20231;-82
2023/09/23 11:37:53;;;;;;;0.10;0.10;;;20.70;99.90;;;;;;4997304;28;20207;-82
2023/09/23 11:40:19;;;;;;;0.10;0.10;;;20.40;99.90;;;;;;4985875;28;20180;-82
2023/09/23 11:42:45;;;;;;;0.10;0.10;;;20.50;99.90;;;;;;4982596;28;20215;-82
2023/09/23 11:45:11;;;;;;;0.10;0.10;;;20.40;99.90;;;;;;4984442;28;20274;-82
2023/09/23 11:47:38;;;;;;;0.10;0.10;;;20.30;99.90;;;;;;4984294;28;20279;-82
2023/09/23 11:50:05;;;;;;;0.10;0.10;;;20.40;99.90;;;;;;4986001;28;20180;-81
2023/09/23 11:52:32;;;;;;;0.10;0.10;;;20.70;99.90;;;;;;4982059;28;20685;-81
2023/09/23 11:54:58;;;;;;;0.10;0.10;;;20.60;99.90;;;;;;4981044;28;20176;-81
2023/09/23 11:57:23;;;;;;;0.10;0.10;;;20.50;99.90;;;;;;4979336;28;20303;-81
2023/09/23 11:59:49;;;;;;;0.10;0.10;;;20.50;99.90;;;;;;4978574;28;20207;-81
2023/09/23 12:02:14;;;;;;;0.10;0.10;;;20.80;99.90;;;;;;4980968;28;20214;-81
2023/09/23 12:04:40;;;;;;;0.10;0.10;;;21.10;99.90;;;;;;4980715;28;20291;-81
2023/09/23 12:07:06;;;;;;;0.20;0.20;;;21.40;99.90;;;;;;4979282;28;20188;-81
2023/09/23 12:09:34;;;;;;;0.10;0.10;;;21.30;99.90;;;;;;4981160;28;20188;-81
2023/09/23 12:12:00;;;;;;;0.10;0.10;;;21.40;99.90;;;;;;4981354;28;20595;-81
2023/09/23 12:14:26;;;;;;;0.10;0.10;;;21.40;99.90;;;;;;4980380;28;20208;-82
2023/09/23 12:16:51;;;;;;;0.10;0.10;;;21.40;99.90;;;;;;4981217;28;20223;-81
2023/09/23 12:19:17;;;;;;;0.10;0.10;;;21.30;99.90;;;;;;4981678;28;20217;-81
2023/09/23 12:21:42;;;;;;;0.10;0.10;;;21.40;99.90;;;;;;4981164;28;20180;-81
2023/09/23 12:24:08;;;;;;;0.10;0.10;;;21.20;99.90;;;;;;4981212;28;20192;-81
2023/09/23 12:26:35;;;;;;;0.10;0.10;;;20.70;99.90;;;;;;4982710;28;20271;-82
2023/09/23 12:29:03;;;;;;;0.10;0.10;;;20.50;99.90;;;;;;4981433;28;20211;-82
2023/09/23 12:31:29;;;;;;;0.10;0.10;;;20.20;99.90;;;;;;4983304;28;20184;-81
2023/09/23 12:33:54;;;;;;;0.10;0.10;;;20.00;99.90;;;;;;4982881;28;20212;-81
2023/09/23 12:36:20;;;;;;;0.10;0.10;;;19.90;99.90;;;;;;4979281;28;20180;-81
2023/09/23 12:38:46;;;;;;;0.10;0.10;;;19.80;99.90;;;;;;4982052;28;20212;-81
2023/09/23 12:41:14;;;;;;;0.10;0.10;;;19.70;99.90;;;;;;4979583;28;20691;-81
2023/09/23 12:43:40;;;;;;;0.10;0.10;;;19.60;99.90;;;;;;4982815;28;20184;-82
2023/09/23 12:46:05;;;;;;;0.10;0.10;;;19.50;99.90;;;;;;4979840;28;20183;-81